Goshen, IN

9:12 AM EDT on August 22, 2017 (GMT -0400)
Goshen Municipal

Weather History for KGSH - December, 2013

Change the Weather History Date:

Sunday, December 22, 2013

  Actual Average Record
Temperature  
Mean Temperature 35 °F -  
Max Temperature 37 °F 33 °F 56 °F (1949)
Min Temperature 32 °F 18 °F -16 °F (1989)
Degree Days  
Heating Degree Days 30    
Moisture  
Dew Point 33 °F    
Average Humidity 92    
Maximum Humidity 100    
Minimum Humidity 85    
Precipitation  
Precipitation 0.18 in - - ()
Sea Level Pressure  
Sea Level Pressure 29.72 in    
Wind  
Wind Speed 9 mph (WNW)    
Max Wind Speed 20 mph    
Max Gust Speed 26 mph    
Visibility 4 miles    
Events Rain , Snow    
Averages and records for this station are not official NWS values.
T = Trace of Precipitation, MM = Missing Value Source: NWS Daily Summary

Daily Weather History Graph

Daily Weather History Graph

Search for Another Location

Airport or City:

Trip Planner

Search our weather history database for the weather conditions in past years. The results will help you decide how hot, cold, wet, or windy it might be!

Date:

Astronomy

Dec. 22, 2013 Rise Set
Actual Time 8:06 AM EST 5:17 PM EST
Civil Twilight 7:35 AM EST 5:48 PM EST
Nautical Twilight 7:00 AM EST 6:23 PM EST
Astronomical Twilight 6:26 AM EST 6:57 PM EST
Moon 10:32 PM EST 10:59 AM EST
Length of Visible Light 10h 13m
Length of Day
9h 10m
Waning Gibbous, 77% of the Moon is Illuminated
Dec 22
Waning Gibbous
Dec 25
Last Quarter
Jan 1
New
Jan 7
First Quarter
Jan 15
Full

Hourly Weather History & Observations

Time (EST) Temp. Windchill Dew Point Humidity Pressure Visibility Wind Dir Wind Speed Gust Speed Precip Events Conditions
12:24 AM 35.6 °F 28.6 °F 32.0 °F 87% 29.61 in 6.0 mi NE 9.2 mph - 0.01 in   Overcast
12:53 AM 35.1 °F 26.4 °F 32.0 °F 89% 29.55 in 4.0 mi ENE 12.7 mph 26.5 mph 0.01 in   Overcast
1:29 AM 35.6 °F 26.2 °F 33.8 °F 93% 29.49 in 1.8 mi NE 15.0 mph 18.4 mph 0.00 in   Overcast
1:48 AM 35.6 °F 29.2 °F 33.8 °F 93% 29.56 in 2.5 mi ENE 8.1 mph - 0.01 in   Overcast
1:53 AM 35.1 °F 29.3 °F 33.1 °F 92% 29.58 in 2.5 mi ENE 6.9 mph - 0.01 in   Overcast
2:09 AM 35.6 °F 30.7 °F 33.8 °F 93% 29.55 in 1.8 mi NE 5.8 mph - 0.03 in Rain Light Rain
2:18 AM 35.6 °F 29.2 °F 33.8 °F 93% 29.53 in 2.0 mi NE 8.1 mph - 0.04 in Rain Light Rain
2:48 AM 35.6 °F 29.9 °F 33.8 °F 93% 29.55 in 1.5 mi NE 6.9 mph - 0.06 in   Overcast
2:53 AM 35.1 °F 28.6 °F 33.1 °F 92% 29.57 in 1.2 mi NE 8.1 mph - 0.07 in   Overcast
3:27 AM 35.6 °F 29.2 °F 33.8 °F 93% 29.54 in 2.5 mi NE 8.1 mph - 0.02 in   Overcast
3:34 AM 35.6 °F 28.6 °F 33.8 °F 93% 29.53 in 4.0 mi NE 9.2 mph - 0.02 in   Overcast
3:53 AM 35.1 °F 28.6 °F 33.1 °F 92% 29.55 in 2.5 mi NE 8.1 mph - 0.02 in   Overcast
4:11 AM 35.6 °F 29.2 °F 33.8 °F 93% 29.52 in 1.5 mi NE 8.1 mph - 0.01 in   Overcast
4:36 AM 35.6 °F 29.9 °F 33.8 °F 93% 29.53 in 2.0 mi NE 6.9 mph - 0.01 in   Overcast
4:53 AM 35.1 °F 27.9 °F 32.0 °F 89% 29.55 in 2.5 mi NE 9.2 mph - 0.01 in   Overcast
5:13 AM 35.6 °F 32.8 °F 33.8 °F 93% 29.53 in 1.8 mi NNE 3.5 mph - N/A   Overcast
5:24 AM 35.6 °F 31.7 °F 33.8 °F 93% 29.54 in 2.0 mi NNE 4.6 mph - N/A   Overcast
5:42 AM 33.8 °F 28.6 °F 33.8 °F 100% 29.54 in 1.8 mi NNE 5.8 mph - N/A   Overcast
5:53 AM 34.0 °F 31.0 °F 33.1 °F 96% 29.57 in 1.5 mi North 3.5 mph - N/A   Overcast
6:12 AM 33.8 °F 29.6 °F 33.8 °F 100% 29.56 in 2.0 mi North 4.6 mph - N/A   Overcast
6:43 AM 33.8 °F 30.8 °F 33.8 °F 100% 29.57 in 1.8 mi NNW 3.5 mph - N/A   Overcast
6:53 AM 34.0 °F 29.8 °F 33.1 °F 96% 29.59 in 1.8 mi North 4.6 mph - 0.01 in   Overcast
7:03 AM 33.8 °F 27.7 °F 33.8 °F 100% 29.58 in 2.0 mi NNE 6.9 mph - N/A   Overcast
7:31 AM 33.8 °F 30.8 °F 32.0 °F 93% 29.59 in 3.0 mi North 3.5 mph - N/A   Overcast
7:53 AM 34.0 °F - 33.1 °F 96% 29.63 in 5.0 mi Calm Calm - N/A   Overcast
8:30 AM 33.8 °F - 33.8 °F 100% 29.60 in 2.5 mi Calm Calm - N/A   Overcast
8:44 AM 33.8 °F 30.8 °F 32.0 °F 93% 29.61 in 1.8 mi South 3.5 mph - N/A   Overcast
8:53 AM 34.0 °F - 33.1 °F 96% 29.64 in 1.5 mi Calm Calm - N/A   Overcast
9:44 AM 35.6 °F 28.0 °F 33.8 °F 93% 29.68 in 1.0 mi SSW 10.4 mph - N/A   Overcast
9:53 AM 35.1 °F 26.9 °F 33.1 °F 92% 29.70 in 1.0 mi SSW 11.5 mph - N/A   Overcast
10:35 AM 35.6 °F 27.1 °F 33.8 °F 93% 29.70 in 2.5 mi SW 12.7 mph - N/A   Overcast
10:45 AM 35.6 °F 25.2 °F 33.8 °F 93% 29.70 in 3.0 mi SW 18.4 mph 23.0 mph N/A   Overcast
10:53 AM 37.0 °F 28.5 °F 34.0 °F 89% 29.73 in 4.0 mi SW 13.8 mph 23.0 mph N/A   Overcast
11:01 AM 37.4 °F 28.5 °F 33.8 °F 87% 29.71 in 9.0 mi SW 15.0 mph - N/A   Overcast
11:53 AM 37.0 °F 28.1 °F 34.0 °F 89% 29.76 in 5.0 mi SW 15.0 mph - N/A   Overcast
12:07 PM 35.6 °F 25.9 °F 33.8 °F 93% 29.73 in 2.0 mi SW 16.1 mph - N/A   Overcast
12:15 PM 35.6 °F 24.8 °F 33.8 °F 93% 29.74 in 2.5 mi SW 19.6 mph 24.2 mph 0.00 in   Overcast
12:18 PM 35.6 °F 26.2 °F 33.8 °F 93% 29.74 in 3.0 mi SW 15.0 mph 24.2 mph 0.00 in   Overcast
12:53 PM 37.0 °F 27.7 °F 34.0 °F 89% 29.78 in 8.0 mi SW 16.1 mph - 0.00 in   Overcast
1:15 PM 37.4 °F 28.9 °F 33.8 °F 87% 29.76 in 10.0 mi SW 13.8 mph 23.0 mph N/A   Overcast
1:53 PM 37.0 °F 27.7 °F 33.1 °F 86% 29.80 in 10.0 mi SW 16.1 mph - N/A   Overcast
2:49 PM 37.4 °F 28.5 °F 33.8 °F 87% 29.79 in 10.0 mi SW 15.0 mph 24.2 mph N/A   Overcast
2:53 PM 37.0 °F 28.9 °F 33.1 °F 86% 29.82 in 10.0 mi SW 12.7 mph - N/A   Overcast
3:35 PM 37.4 °F 29.8 °F 33.8 °F 87% 29.82 in 10.0 mi SW 11.5 mph - N/A   Overcast
3:53 PM 37.0 °F 28.9 °F 33.1 °F 86% 29.85 in 9.0 mi WSW 12.7 mph - N/A   Overcast
4:13 PM 35.6 °F 28.0 °F 33.8 °F 93% 29.84 in 2.5 mi West 10.4 mph - 0.01 in Snow Light Snow
4:23 PM 33.8 °F 27.0 °F 33.8 °F 100% 29.85 in 1.5 mi WSW 8.1 mph - 0.02 in Snow Light Snow
4:53 PM 34.0 °F 26.6 °F 32.0 °F 92% 29.88 in 1.0 mi WSW 9.2 mph - 0.04 in Snow Light Snow
5:01 PM 33.8 °F 27.0 °F 32.0 °F 93% 29.86 in 2.0 mi WSW 8.1 mph - 0.01 in Snow Light Snow
5:10 PM 33.8 °F 27.0 °F 32.0 °F 93% 29.87 in 4.0 mi WSW 8.1 mph - 0.01 in   Overcast
5:18 PM 33.8 °F 27.7 °F 32.0 °F 93% 29.87 in 3.0 mi WSW 6.9 mph - 0.01 in   Overcast
5:53 PM 34.0 °F 28.0 °F 32.0 °F 92% 29.91 in 5.0 mi WSW 6.9 mph - 0.01 in   Overcast
6:39 PM 33.8 °F 27.7 °F 32.0 °F 93% 29.91 in 8.0 mi West 6.9 mph - N/A   Overcast
6:53 PM 34.0 °F 26.6 °F 32.0 °F 92% 29.94 in 8.0 mi West 9.2 mph - N/A   Overcast
7:09 PM 33.8 °F 27.0 °F 30.2 °F 87% 29.91 in 7.0 mi West 8.1 mph - N/A   Overcast
7:23 PM 33.8 °F 28.6 °F 30.2 °F 87% 29.92 in 7.0 mi West 5.8 mph - N/A   Overcast
7:53 PM 34.0 °F 26.6 °F 30.9 °F 89% 29.96 in 6.0 mi West 9.2 mph - N/A   Overcast
8:15 PM 33.8 °F 27.0 °F 30.2 °F 87% 29.95 in 2.0 mi WNW 8.1 mph - 0.00 in Snow Light Snow
8:23 PM 33.8 °F 26.4 °F 30.2 °F 87% 29.95 in 5.0 mi WNW 9.2 mph - 0.00 in   Overcast
8:53 PM 33.1 °F 23.4 °F 30.0 °F 89% 29.99 in 7.0 mi WNW 13.8 mph - 0.00 in   Overcast
9:53 PM 33.1 °F 25.5 °F 30.0 °F 89% 30.00 in 5.0 mi WNW 9.2 mph - N/A   Overcast
10:03 PM 33.8 °F 25.8 °F 30.2 °F 87% 29.97 in 6.0 mi West 10.4 mph - N/A   Overcast
10:53 PM 33.1 °F 24.4 °F 28.9 °F 85% 30.02 in 10.0 mi West 11.5 mph - N/A   Overcast
11:53 PM 32.0 °F 24.2 °F 28.0 °F 85% 30.04 in 10.0 mi West 9.2 mph - N/A   Overcast